RYR86DZ EBCI-LFMU
Flight info
| Callsign | RYR86DZ |
|---|---|
| Flight time | 1h 11m |
| Altitude | 19000 |
| Route | CIV Y50 IDOKO/N0334F170 Y50 MATIX/N0343F190 Y50 REM B3 VATRI G40 TRO B373 MOU A27 MINPA/N0335F180 A27 MOKDI/N0339F190 A27 MEN J27 AFRIC |
| Aircraft | B738/M-SDE3FGILRWY/SB1 |
Departure
| Time | 2026-04-24 10:35 |
|---|---|
| Airport | Brussels South Charleroi Airport (EBCI) |
Arrival
| Time | 2026-04-24 11:46 |
|---|---|
| Airport | Béziers Vias airport (LFMU) |
| Time | Latitude | Longitude | Altitude | Speed | Heading |
|---|---|---|---|---|---|
| 2026-04-24 10:05 | 50.46855 | 4.47042 | 584 ft | 0 kts | 335° |
| 2026-04-24 10:28 | 50.46852 | 4.47044 | 584 ft | 2 kts | 335° |
| 2026-04-24 10:28 | 50.46835 | 4.47056 | 584 ft | 3 kts | 335° |
| 2026-04-24 10:28 | 50.46819 | 4.47067 | 584 ft | 3 kts | 350° |
| 2026-04-24 10:29 | 50.46803 | 4.47067 | 584 ft | 4 kts | 42° |
| 2026-04-24 10:29 | 50.46792 | 4.47043 | 584 ft | 4 kts | 68° |
| 2026-04-24 10:29 | 50.46788 | 4.47025 | 584 ft | 3 kts | 65° |
| 2026-04-24 10:29 | 50.46788 | 4.47024 | 584 ft | 3 kts | 65° |
| 2026-04-24 10:32 | 50.46788 | 4.47025 | 584 ft | 0 kts | 65° |
| 2026-04-24 10:32 | 50.46789 | 4.47029 | 584 ft | 2 kts | 65° |
| 2026-04-24 10:32 | 50.46799 | 4.47065 | 584 ft | 6 kts | 65° |
| 2026-04-24 10:32 | 50.46821 | 4.47140 | 585 ft | 9 kts | 66° |
| 2026-04-24 10:33 | 50.46852 | 4.47246 | 584 ft | 12 kts | 65° |
| 2026-04-24 10:33 | 50.46889 | 4.47373 | 584 ft | 13 kts | 66° |
| 2026-04-24 10:33 | 50.46928 | 4.47505 | 585 ft | 13 kts | 65° |
| 2026-04-24 10:33 | 50.46896 | 4.47618 | 588 ft | 13 kts | 155° |
| 2026-04-24 10:34 | 50.46815 | 4.47675 | 593 ft | 13 kts | 155° |
| 2026-04-24 10:34 | 50.46735 | 4.47731 | 594 ft | 9 kts | 155° |
| 2026-04-24 10:34 | 50.46684 | 4.47692 | 592 ft | 11 kts | 253° |
| 2026-04-24 10:34 | 50.46648 | 4.47567 | 593 ft | 34 kts | 245° |
| 2026-04-24 10:35 | 50.46431 | 4.46817 | 593 ft | 116 kts | 246° |
| 2026-04-24 10:35 | 50.46001 | 4.45349 | 716 ft | 170 kts | 245° |
| 2026-04-24 10:35 | 50.45446 | 4.43614 | 1443 ft | 187 kts | 243° |
| 2026-04-24 10:35 | 50.44884 | 4.41775 | 2488 ft | 182 kts | 248° |
| 2026-04-24 10:36 | 50.44393 | 4.39984 | 3531 ft | 177 kts | 246° |
| 2026-04-24 10:36 | 50.43855 | 4.38159 | 4164 ft | 197 kts | 246° |
| 2026-04-24 10:36 | 50.43243 | 4.36044 | 4480 ft | 226 kts | 246° |
| 2026-04-24 10:36 | 50.42564 | 4.33658 | 4740 ft | 251 kts | 247° |
| 2026-04-24 10:37 | 50.41865 | 4.31086 | 5255 ft | 265 kts | 247° |
| 2026-04-24 10:37 | 50.41095 | 4.28327 | 5740 ft | 284 kts | 246° |
| 2026-04-24 10:37 | 50.40300 | 4.25508 | 6736 ft | 283 kts | 245° |
| 2026-04-24 10:37 | 50.39143 | 4.22995 | 7571 ft | 288 kts | 218° |
| 2026-04-24 10:38 | 50.37525 | 4.21134 | 8458 ft | 290 kts | 214° |
| 2026-04-24 10:38 | 50.35837 | 4.19331 | 9296 ft | 296 kts | 213° |
| 2026-04-24 10:38 | 50.34119 | 4.17514 | 10144 ft | 301 kts | 213° |
| 2026-04-24 10:38 | 50.32380 | 4.15668 | 10952 ft | 303 kts | 213° |
| 2026-04-24 10:39 | 50.30626 | 4.13795 | 11801 ft | 305 kts | 213° |
| 2026-04-24 10:39 | 50.28877 | 4.11919 | 12636 ft | 308 kts | 213° |
| 2026-04-24 10:39 | 50.27095 | 4.10002 | 13437 ft | 310 kts | 213° |
| 2026-04-24 10:39 | 50.25306 | 4.08075 | 14231 ft | 314 kts | 213° |
| 2026-04-24 10:40 | 50.23507 | 4.06137 | 15026 ft | 314 kts | 213° |
| 2026-04-24 10:40 | 50.21699 | 4.04188 | 15759 ft | 317 kts | 214° |
| 2026-04-24 10:40 | 50.19880 | 4.02228 | 16510 ft | 319 kts | 214° |
| 2026-04-24 10:40 | 50.18045 | 4.00251 | 17253 ft | 322 kts | 214° |
| 2026-04-24 10:41 | 50.16198 | 3.98265 | 18014 ft | 324 kts | 214° |
| 2026-04-24 10:41 | 50.14334 | 3.96263 | 18731 ft | 326 kts | 214° |
| 2026-04-24 10:41 | 50.12474 | 3.94269 | 19149 ft | 322 kts | 214° |
| 2026-04-24 10:41 | 50.10531 | 3.92523 | 19269 ft | 327 kts | 199° |
| 2026-04-24 10:42 | 50.08315 | 3.91739 | 19285 ft | 328 kts | 183° |
| 2026-04-24 10:42 | 50.06050 | 3.91892 | 19286 ft | 326 kts | 174° |
| 2026-04-24 10:42 | 50.03773 | 3.92293 | 19297 ft | 337 kts | 173° |
| 2026-04-24 10:42 | 50.01374 | 3.92744 | 19296 ft | 357 kts | 173° |
| 2026-04-24 10:43 | 49.98842 | 3.93213 | 19289 ft | 376 kts | 173° |
| 2026-04-24 10:43 | 49.96184 | 3.93690 | 19295 ft | 392 kts | 173° |
| 2026-04-24 10:43 | 49.93417 | 3.94171 | 19292 ft | 408 kts | 174° |
| 2026-04-24 10:43 | 49.90590 | 3.94653 | 19294 ft | 421 kts | 174° |
| 2026-04-24 10:44 | 49.87642 | 3.95149 | 19282 ft | 430 kts | 173° |
| 2026-04-24 10:44 | 49.84665 | 3.95650 | 19267 ft | 432 kts | 173° |
| 2026-04-24 10:44 | 49.81669 | 3.96152 | 19268 ft | 435 kts | 174° |
| 2026-04-24 10:44 | 49.78640 | 3.96661 | 19263 ft | 438 kts | 173° |
| 2026-04-24 10:45 | 49.75620 | 3.97169 | 19256 ft | 435 kts | 173° |
| 2026-04-24 10:45 | 49.72627 | 3.97673 | 19260 ft | 431 kts | 173° |
| 2026-04-24 10:45 | 49.69650 | 3.98175 | 19257 ft | 432 kts | 173° |
| 2026-04-24 10:45 | 49.66652 | 3.98680 | 19262 ft | 434 kts | 173° |
| 2026-04-24 10:46 | 49.64661 | 3.99015 | 19266 ft | 435 kts | 173° |
| 2026-04-24 10:46 | 49.61652 | 3.99520 | 19270 ft | 437 kts | 173° |
| 2026-04-24 10:46 | 49.58619 | 4.00028 | 19264 ft | 438 kts | 173° |
| 2026-04-24 10:46 | 49.55590 | 4.00535 | 19260 ft | 438 kts | 173° |
| 2026-04-24 10:47 | 49.52564 | 4.01038 | 19262 ft | 437 kts | 173° |
| 2026-04-24 10:47 | 49.49542 | 4.01539 | 19255 ft | 437 kts | 173° |
| 2026-04-24 10:47 | 49.46521 | 4.02042 | 19260 ft | 436 kts | 173° |
| 2026-04-24 10:47 | 49.43510 | 4.02540 | 19260 ft | 435 kts | 173° |
| 2026-04-24 10:48 | 49.40501 | 4.03036 | 19258 ft | 434 kts | 173° |
| 2026-04-24 10:48 | 49.37499 | 4.03532 | 19261 ft | 434 kts | 173° |
| 2026-04-24 10:48 | 49.34496 | 4.04008 | 19263 ft | 433 kts | 173° |
| 2026-04-24 10:48 | 49.31495 | 4.04461 | 19261 ft | 433 kts | 174° |
| 2026-04-24 10:49 | 49.28488 | 4.04726 | 19259 ft | 434 kts | 178° |
| 2026-04-24 10:49 | 49.25465 | 4.04774 | 19261 ft | 434 kts | 179° |
| 2026-04-24 10:49 | 49.22445 | 4.04764 | 19262 ft | 434 kts | 179° |
| 2026-04-24 10:49 | 49.19423 | 4.04778 | 19269 ft | 434 kts | 178° |
| 2026-04-24 10:50 | 49.16394 | 4.04830 | 19272 ft | 434 kts | 178° |
| 2026-04-24 10:50 | 49.13374 | 4.04901 | 19267 ft | 434 kts | 178° |
| 2026-04-24 10:50 | 49.10355 | 4.04982 | 19263 ft | 434 kts | 178° |
| 2026-04-24 10:50 | 49.07335 | 4.05064 | 19265 ft | 434 kts | 178° |
| 2026-04-24 10:51 | 49.04356 | 4.05144 | 19266 ft | 434 kts | 178° |
| 2026-04-24 10:51 | 49.01298 | 4.05226 | 19266 ft | 434 kts | 178° |
| 2026-04-24 10:51 | 48.98318 | 4.05305 | 19245 ft | 434 kts | 178° |
| 2026-04-24 10:51 | 48.95299 | 4.05384 | 19247 ft | 434 kts | 178° |
| 2026-04-24 10:52 | 48.92281 | 4.05463 | 19244 ft | 434 kts | 178° |
| 2026-04-24 10:52 | 48.89263 | 4.05541 | 19242 ft | 434 kts | 178° |
| 2026-04-24 10:52 | 48.86246 | 4.05619 | 19239 ft | 434 kts | 178° |
| 2026-04-24 10:52 | 48.83230 | 4.05698 | 19242 ft | 434 kts | 178° |
| 2026-04-24 10:53 | 48.80215 | 4.05776 | 19240 ft | 434 kts | 178° |
| 2026-04-24 10:53 | 48.77197 | 4.05846 | 19240 ft | 434 kts | 178° |
| 2026-04-24 10:53 | 48.74180 | 4.05900 | 19240 ft | 434 kts | 178° |
| 2026-04-24 10:53 | 48.71160 | 4.05947 | 19239 ft | 434 kts | 178° |
| 2026-04-24 10:54 | 48.68141 | 4.05995 | 19239 ft | 434 kts | 178° |
| 2026-04-24 10:54 | 48.65124 | 4.06044 | 19239 ft | 434 kts | 178° |
| 2026-04-24 10:54 | 48.62108 | 4.06095 | 19239 ft | 434 kts | 178° |
| 2026-04-24 10:54 | 48.59090 | 4.06146 | 19242 ft | 433 kts | 178° |
| 2026-04-24 10:55 | 48.56073 | 4.06115 | 19235 ft | 434 kts | 182° |
| 2026-04-24 10:55 | 48.53082 | 4.05435 | 19240 ft | 435 kts | 191° |
| 2026-04-24 10:55 | 48.50126 | 4.04430 | 19224 ft | 436 kts | 191° |
| 2026-04-24 10:55 | 48.47169 | 4.03422 | 19217 ft | 436 kts | 191° |
| 2026-04-24 10:56 | 48.44214 | 4.02434 | 19216 ft | 436 kts | 191° |
| 2026-04-24 10:56 | 48.41251 | 4.01464 | 19211 ft | 436 kts | 190° |
| 2026-04-24 10:56 | 48.38280 | 4.00506 | 19214 ft | 436 kts | 190° |
| 2026-04-24 10:56 | 48.35314 | 3.99557 | 19212 ft | 436 kts | 190° |
| 2026-04-24 10:57 | 48.32351 | 3.98612 | 19214 ft | 435 kts | 190° |
| 2026-04-24 10:57 | 48.29389 | 3.97668 | 19212 ft | 435 kts | 190° |
| 2026-04-24 10:57 | 48.26426 | 3.96723 | 19210 ft | 435 kts | 190° |
| 2026-04-24 10:57 | 48.23462 | 3.95856 | 19208 ft | 435 kts | 188° |
| 2026-04-24 10:58 | 48.20470 | 3.95168 | 19209 ft | 434 kts | 186° |
| 2026-04-24 10:58 | 48.17519 | 3.94563 | 19215 ft | 434 kts | 186° |
| 2026-04-24 10:58 | 48.14525 | 3.93956 | 19222 ft | 434 kts | 186° |
| 2026-04-24 10:58 | 48.11492 | 3.93326 | 19221 ft | 434 kts | 186° |
| 2026-04-24 10:59 | 48.08543 | 3.92695 | 19215 ft | 434 kts | 186° |
| 2026-04-24 10:59 | 48.05550 | 3.92045 | 19213 ft | 434 kts | 186° |
| 2026-04-24 10:59 | 48.02559 | 3.91393 | 19210 ft | 434 kts | 186° |
| 2026-04-24 10:59 | 47.99571 | 3.90742 | 19214 ft | 434 kts | 186° |
| 2026-04-24 11:00 | 47.96579 | 3.90089 | 19203 ft | 434 kts | 187° |
| 2026-04-24 11:00 | 47.93596 | 3.89438 | 19218 ft | 434 kts | 186° |
| 2026-04-24 11:00 | 47.90607 | 3.88787 | 19209 ft | 434 kts | 186° |
| 2026-04-24 11:00 | 47.87623 | 3.88137 | 19199 ft | 433 kts | 186° |
| 2026-04-24 11:01 | 47.84641 | 3.87488 | 19206 ft | 433 kts | 186° |
| 2026-04-24 11:01 | 47.81661 | 3.86841 | 19195 ft | 433 kts | 186° |
| 2026-04-24 11:01 | 47.78682 | 3.86196 | 19200 ft | 433 kts | 186° |
| 2026-04-24 11:01 | 47.75704 | 3.85551 | 19196 ft | 433 kts | 186° |
| 2026-04-24 11:02 | 47.72721 | 3.84905 | 19190 ft | 433 kts | 186° |
| 2026-04-24 11:02 | 47.69742 | 3.84261 | 19195 ft | 433 kts | 186° |
| 2026-04-24 11:02 | 47.66763 | 3.83618 | 19186 ft | 433 kts | 186° |
| 2026-04-24 11:02 | 47.63783 | 3.82975 | 19191 ft | 433 kts | 186° |
| 2026-04-24 11:03 | 47.60802 | 3.82333 | 19184 ft | 433 kts | 186° |
| 2026-04-24 11:03 | 47.57817 | 3.81691 | 19187 ft | 433 kts | 186° |
| 2026-04-24 11:03 | 47.54832 | 3.81050 | 19179 ft | 433 kts | 186° |
| 2026-04-24 11:03 | 47.51849 | 3.80406 | 19197 ft | 433 kts | 186° |
| 2026-04-24 11:04 | 47.48865 | 3.79762 | 19191 ft | 434 kts | 186° |
| 2026-04-24 11:04 | 47.45876 | 3.79116 | 19185 ft | 434 kts | 186° |
| 2026-04-24 11:04 | 47.42885 | 3.78470 | 19180 ft | 434 kts | 186° |
| 2026-04-24 11:04 | 47.39895 | 3.77825 | 19179 ft | 434 kts | 186° |
| 2026-04-24 11:05 | 47.36904 | 3.77181 | 19165 ft | 434 kts | 186° |
| 2026-04-24 11:05 | 47.33917 | 3.76539 | 19167 ft | 434 kts | 186° |
| 2026-04-24 11:05 | 47.30931 | 3.75898 | 19178 ft | 433 kts | 186° |
| 2026-04-24 11:05 | 47.27945 | 3.75258 | 19175 ft | 433 kts | 186° |
| 2026-04-24 11:06 | 47.24963 | 3.74619 | 19175 ft | 433 kts | 186° |
| 2026-04-24 11:06 | 47.21987 | 3.73982 | 19170 ft | 433 kts | 186° |
| 2026-04-24 11:06 | 47.19007 | 3.73345 | 19170 ft | 432 kts | 186° |
| 2026-04-24 11:06 | 47.16030 | 3.72710 | 19162 ft | 432 kts | 186° |
| 2026-04-24 11:07 | 47.10087 | 3.71443 | 19171 ft | 432 kts | 186° |
| 2026-04-24 11:07 | 47.07116 | 3.70811 | 19177 ft | 431 kts | 186° |
| 2026-04-24 11:07 | 47.04146 | 3.70170 | 19167 ft | 431 kts | 186° |
| 2026-04-24 11:08 | 47.01179 | 3.69495 | 19168 ft | 431 kts | 187° |
| 2026-04-24 11:08 | 46.98215 | 3.68804 | 19172 ft | 431 kts | 187° |
| 2026-04-24 11:08 | 46.95251 | 3.68110 | 19165 ft | 431 kts | 187° |
| 2026-04-24 11:08 | 46.92295 | 3.67418 | 19167 ft | 431 kts | 187° |
| 2026-04-24 11:09 | 46.89334 | 3.66727 | 19184 ft | 430 kts | 187° |
| 2026-04-24 11:09 | 46.86386 | 3.66044 | 19166 ft | 428 kts | 187° |
| 2026-04-24 11:09 | 46.83452 | 3.65366 | 19164 ft | 426 kts | 187° |
| 2026-04-24 11:09 | 46.80530 | 3.64694 | 19167 ft | 424 kts | 187° |
| 2026-04-24 11:10 | 46.77617 | 3.64024 | 19168 ft | 423 kts | 187° |
| 2026-04-24 11:10 | 46.74707 | 3.63358 | 19177 ft | 423 kts | 187° |
| 2026-04-24 11:10 | 46.71794 | 3.62691 | 19171 ft | 424 kts | 187° |
| 2026-04-24 11:10 | 46.68877 | 3.62024 | 19163 ft | 425 kts | 187° |
| 2026-04-24 11:11 | 46.65953 | 3.61357 | 19165 ft | 425 kts | 187° |
| 2026-04-24 11:11 | 46.63029 | 3.60689 | 19164 ft | 426 kts | 187° |
| 2026-04-24 11:11 | 46.60109 | 3.60023 | 19167 ft | 426 kts | 187° |
| 2026-04-24 11:11 | 46.57171 | 3.59355 | 19175 ft | 426 kts | 187° |
| 2026-04-24 11:12 | 46.54241 | 3.58689 | 19171 ft | 427 kts | 187° |
| 2026-04-24 11:12 | 46.51305 | 3.58021 | 19161 ft | 427 kts | 187° |
| 2026-04-24 11:12 | 46.48376 | 3.57355 | 19167 ft | 426 kts | 187° |
| 2026-04-24 11:12 | 46.45491 | 3.56699 | 19159 ft | 425 kts | 187° |
| 2026-04-24 11:13 | 46.42578 | 3.56039 | 19163 ft | 423 kts | 187° |
| 2026-04-24 11:13 | 46.39666 | 3.55380 | 19156 ft | 423 kts | 187° |
| 2026-04-24 11:13 | 46.36764 | 3.54724 | 19151 ft | 422 kts | 187° |
| 2026-04-24 11:13 | 46.33860 | 3.54068 | 19160 ft | 422 kts | 187° |
| 2026-04-24 11:14 | 46.30960 | 3.53414 | 19160 ft | 422 kts | 187° |
| 2026-04-24 11:14 | 46.28060 | 3.52760 | 19164 ft | 422 kts | 187° |
| 2026-04-24 11:14 | 46.25158 | 3.52107 | 19160 ft | 422 kts | 187° |
| 2026-04-24 11:14 | 46.22261 | 3.51455 | 19156 ft | 422 kts | 187° |
| 2026-04-24 11:15 | 46.19365 | 3.50805 | 19166 ft | 421 kts | 187° |
| 2026-04-24 11:15 | 46.16465 | 3.50154 | 19155 ft | 422 kts | 187° |
| 2026-04-24 11:15 | 46.13569 | 3.49505 | 19159 ft | 421 kts | 187° |
| 2026-04-24 11:15 | 46.10669 | 3.48855 | 19159 ft | 422 kts | 188° |
| 2026-04-24 11:16 | 46.07768 | 3.48207 | 19162 ft | 422 kts | 188° |
| 2026-04-24 11:16 | 46.04865 | 3.47558 | 19159 ft | 422 kts | 188° |
| 2026-04-24 11:16 | 46.01959 | 3.46908 | 19149 ft | 423 kts | 188° |
| 2026-04-24 11:16 | 45.99054 | 3.46261 | 19149 ft | 423 kts | 188° |
| 2026-04-24 11:17 | 45.96150 | 3.45613 | 19147 ft | 423 kts | 188° |
| 2026-04-24 11:17 | 45.93242 | 3.44965 | 19147 ft | 423 kts | 188° |
| 2026-04-24 11:17 | 45.90336 | 3.44320 | 19144 ft | 423 kts | 189° |
| 2026-04-24 11:17 | 45.87427 | 3.43674 | 19149 ft | 423 kts | 189° |
| 2026-04-24 11:18 | 45.84516 | 3.43029 | 19146 ft | 424 kts | 189° |
| 2026-04-24 11:18 | 45.81638 | 3.42392 | 19146 ft | 424 kts | 189° |
| 2026-04-24 11:18 | 45.78725 | 3.41747 | 19157 ft | 424 kts | 189° |
| 2026-04-24 11:18 | 45.75810 | 3.41101 | 19153 ft | 424 kts | 189° |
| 2026-04-24 11:19 | 45.72890 | 3.40456 | 19150 ft | 424 kts | 189° |
| 2026-04-24 11:19 | 45.69966 | 3.39812 | 19124 ft | 426 kts | 190° |
| 2026-04-24 11:19 | 45.67036 | 3.39166 | 19132 ft | 428 kts | 190° |
| 2026-04-24 11:19 | 45.64089 | 3.38517 | 19131 ft | 429 kts | 190° |
| 2026-04-24 11:20 | 45.61132 | 3.37866 | 19132 ft | 431 kts | 190° |
| 2026-04-24 11:20 | 45.58168 | 3.37215 | 19128 ft | 431 kts | 190° |
| 2026-04-24 11:20 | 45.55200 | 3.36562 | 19135 ft | 431 kts | 190° |
| 2026-04-24 11:20 | 45.52235 | 3.35911 | 19129 ft | 431 kts | 190° |
| 2026-04-24 11:21 | 45.49267 | 3.35263 | 19124 ft | 432 kts | 190° |
| 2026-04-24 11:21 | 45.46295 | 3.34614 | 19129 ft | 433 kts | 190° |
| 2026-04-24 11:21 | 45.43316 | 3.33963 | 19128 ft | 433 kts | 190° |
| 2026-04-24 11:21 | 45.40338 | 3.33312 | 19128 ft | 433 kts | 190° |
| 2026-04-24 11:22 | 45.37359 | 3.32662 | 19131 ft | 433 kts | 190° |
| 2026-04-24 11:22 | 45.34383 | 3.32014 | 19129 ft | 433 kts | 190° |
| 2026-04-24 11:22 | 45.31403 | 3.31366 | 19109 ft | 434 kts | 191° |
| 2026-04-24 11:22 | 45.28417 | 3.30717 | 19131 ft | 435 kts | 191° |
| 2026-04-24 11:23 | 45.25418 | 3.30066 | 19134 ft | 437 kts | 191° |
| 2026-04-24 11:23 | 45.22411 | 3.29414 | 19135 ft | 438 kts | 191° |
| 2026-04-24 11:23 | 45.19397 | 3.28761 | 19135 ft | 439 kts | 191° |
| 2026-04-24 11:23 | 45.16374 | 3.28105 | 19135 ft | 439 kts | 191° |
| 2026-04-24 11:24 | 45.13354 | 3.27453 | 19115 ft | 440 kts | 190° |
| 2026-04-24 11:24 | 45.10328 | 3.26800 | 19124 ft | 440 kts | 190° |
| 2026-04-24 11:24 | 45.07301 | 3.26147 | 19129 ft | 440 kts | 191° |
| 2026-04-24 11:24 | 45.04310 | 3.25502 | 19131 ft | 441 kts | 191° |
| 2026-04-24 11:25 | 45.01277 | 3.24850 | 19143 ft | 441 kts | 191° |
| 2026-04-24 11:25 | 44.98242 | 3.24196 | 19134 ft | 442 kts | 190° |
| 2026-04-24 11:25 | 44.95204 | 3.23544 | 19137 ft | 442 kts | 191° |
| 2026-04-24 11:25 | 44.92166 | 3.22888 | 19126 ft | 441 kts | 191° |
| 2026-04-24 11:26 | 44.89129 | 3.22237 | 19139 ft | 442 kts | 191° |
| 2026-04-24 11:26 | 44.86089 | 3.21587 | 19138 ft | 442 kts | 190° |
| 2026-04-24 11:26 | 44.83055 | 3.20939 | 19135 ft | 442 kts | 189° |
| 2026-04-24 11:26 | 44.80013 | 3.20291 | 19141 ft | 442 kts | 191° |
| 2026-04-24 11:27 | 44.76969 | 3.19642 | 19138 ft | 442 kts | 190° |
| 2026-04-24 11:27 | 44.73928 | 3.18992 | 19146 ft | 442 kts | 190° |
| 2026-04-24 11:27 | 44.70886 | 3.18345 | 19138 ft | 442 kts | 191° |
| 2026-04-24 11:27 | 44.67846 | 3.17699 | 19145 ft | 442 kts | 190° |
| 2026-04-24 11:28 | 44.64807 | 3.17051 | 19148 ft | 442 kts | 190° |
| 2026-04-24 11:28 | 44.61768 | 3.16404 | 19139 ft | 442 kts | 190° |
| 2026-04-24 11:28 | 44.58746 | 3.15641 | 19126 ft | 441 kts | 193° |
| 2026-04-24 11:28 | 44.55768 | 3.14635 | 19131 ft | 440 kts | 196° |
| 2026-04-24 11:29 | 44.52805 | 3.13533 | 19140 ft | 441 kts | 196° |
| 2026-04-24 11:29 | 44.49836 | 3.12410 | 19150 ft | 442 kts | 197° |
| 2026-04-24 11:29 | 44.46858 | 3.11299 | 19144 ft | 444 kts | 197° |
| 2026-04-24 11:29 | 44.43868 | 3.10206 | 19151 ft | 445 kts | 197° |
| 2026-04-24 11:30 | 44.40872 | 3.09129 | 19153 ft | 445 kts | 196° |
| 2026-04-24 11:30 | 44.37875 | 3.08065 | 19144 ft | 445 kts | 197° |
| 2026-04-24 11:30 | 44.34873 | 3.07009 | 19145 ft | 445 kts | 194° |
| 2026-04-24 11:30 | 44.31869 | 3.05953 | 19156 ft | 445 kts | 195° |
| 2026-04-24 11:31 | 44.28863 | 3.04897 | 19160 ft | 445 kts | 195° |
| 2026-04-24 11:31 | 44.25861 | 3.03844 | 19159 ft | 444 kts | 196° |
| 2026-04-24 11:31 | 44.22895 | 3.02801 | 18907 ft | 436 kts | 196° |
| 2026-04-24 11:31 | 44.19974 | 3.01774 | 18264 ft | 430 kts | 195° |
| 2026-04-24 11:32 | 44.17095 | 3.00763 | 17569 ft | 424 kts | 196° |
| 2026-04-24 11:32 | 44.14254 | 2.99767 | 16919 ft | 418 kts | 196° |
| 2026-04-24 11:32 | 44.11445 | 2.98784 | 16255 ft | 414 kts | 196° |
| 2026-04-24 11:32 | 44.08670 | 2.97815 | 15624 ft | 409 kts | 195° |
| 2026-04-24 11:33 | 44.05922 | 2.96852 | 14985 ft | 405 kts | 196° |
| 2026-04-24 11:33 | 44.03207 | 2.95900 | 14362 ft | 401 kts | 196° |
| 2026-04-24 11:33 | 44.00508 | 2.94954 | 13714 ft | 398 kts | 195° |
| 2026-04-24 11:33 | 43.97835 | 2.94019 | 13024 ft | 395 kts | 197° |
| 2026-04-24 11:34 | 43.95184 | 2.93093 | 12357 ft | 391 kts | 197° |
| 2026-04-24 11:34 | 43.92558 | 2.92174 | 11731 ft | 388 kts | 195° |
| 2026-04-24 11:34 | 43.89948 | 2.91266 | 11114 ft | 385 kts | 195° |
| 2026-04-24 11:34 | 43.87392 | 2.90377 | 10494 ft | 383 kts | 195° |
| 2026-04-24 11:35 | 43.84817 | 2.89477 | 9837 ft | 380 kts | 195° |
| 2026-04-24 11:35 | 43.82258 | 2.88588 | 9173 ft | 378 kts | 195° |
| 2026-04-24 11:35 | 43.79709 | 2.87769 | 8542 ft | 375 kts | 189° |
| 2026-04-24 11:35 | 43.77136 | 2.87816 | 8067 ft | 369 kts | 170° |
| 2026-04-24 11:36 | 43.74679 | 2.88703 | 7661 ft | 361 kts | 163° |
| 2026-04-24 11:36 | 43.72332 | 2.89736 | 7474 ft | 347 kts | 162° |
| 2026-04-24 11:36 | 43.70810 | 2.90507 | 7242 ft | 343 kts | 158° |
| 2026-04-24 11:36 | 43.68697 | 2.91812 | 7081 ft | 330 kts | 156° |
| 2026-04-24 11:37 | 43.66641 | 2.93162 | 6988 ft | 316 kts | 155° |
| 2026-04-24 11:37 | 43.64696 | 2.94441 | 6903 ft | 303 kts | 156° |
| 2026-04-24 11:37 | 43.62816 | 2.95656 | 6783 ft | 293 kts | 156° |
| 2026-04-24 11:37 | 43.60995 | 2.96807 | 6738 ft | 283 kts | 156° |
| 2026-04-24 11:38 | 43.59249 | 2.97958 | 6663 ft | 273 kts | 156° |
| 2026-04-24 11:38 | 43.57547 | 2.99028 | 6619 ft | 264 kts | 157° |
| 2026-04-24 11:38 | 43.55894 | 3.00044 | 6470 ft | 257 kts | 157° |
| 2026-04-24 11:38 | 43.54298 | 3.01024 | 6290 ft | 253 kts | 157° |
| 2026-04-24 11:39 | 43.52676 | 3.02020 | 6042 ft | 251 kts | 157° |
| 2026-04-24 11:39 | 43.51113 | 3.02980 | 5875 ft | 246 kts | 157° |
| 2026-04-24 11:39 | 43.49563 | 3.03935 | 5679 ft | 243 kts | 156° |
| 2026-04-24 11:39 | 43.48020 | 3.04883 | 5433 ft | 242 kts | 156° |
| 2026-04-24 11:40 | 43.46484 | 3.05836 | 5152 ft | 244 kts | 157° |
| 2026-04-24 11:40 | 43.44939 | 3.06783 | 4994 ft | 239 kts | 157° |
| 2026-04-24 11:40 | 43.43437 | 3.07702 | 4920 ft | 233 kts | 156° |
| 2026-04-24 11:40 | 43.41992 | 3.08594 | 4895 ft | 222 kts | 157° |
| 2026-04-24 11:41 | 43.40619 | 3.09441 | 4750 ft | 212 kts | 157° |
| 2026-04-24 11:41 | 43.39283 | 3.10264 | 4393 ft | 210 kts | 157° |
| 2026-04-24 11:41 | 43.37975 | 3.11068 | 4213 ft | 197 kts | 156° |
| 2026-04-24 11:41 | 43.36773 | 3.11807 | 4091 ft | 182 kts | 156° |
| 2026-04-24 11:42 | 43.35639 | 3.12504 | 3825 ft | 177 kts | 156° |
| 2026-04-24 11:42 | 43.34524 | 3.13192 | 3511 ft | 175 kts | 154° |
| 2026-04-24 11:42 | 43.33659 | 3.14329 | 3091 ft | 180 kts | 113° |
| 2026-04-24 11:42 | 43.33514 | 3.16066 | 2688 ft | 185 kts | 95° |
| 2026-04-24 11:43 | 43.33367 | 3.17782 | 2423 ft | 177 kts | 104° |
| 2026-04-24 11:43 | 43.33228 | 3.19414 | 2191 ft | 166 kts | 98° |
| 2026-04-24 11:43 | 43.33149 | 3.20929 | 1962 ft | 153 kts | 98° |
| 2026-04-24 11:43 | 43.33074 | 3.22329 | 1760 ft | 142 kts | 99° |
| 2026-04-24 11:44 | 43.32997 | 3.23677 | 1655 ft | 145 kts | 98° |
| 2026-04-24 11:44 | 43.32921 | 3.25058 | 1415 ft | 142 kts | 98° |
| 2026-04-24 11:44 | 43.32847 | 3.26388 | 1224 ft | 138 kts | 98° |
| 2026-04-24 11:44 | 43.32773 | 3.27672 | 1045 ft | 137 kts | 98° |
| 2026-04-24 11:45 | 43.32700 | 3.28984 | 864 ft | 138 kts | 99° |
| 2026-04-24 11:45 | 43.32626 | 3.30298 | 669 ft | 139 kts | 97° |
| 2026-04-24 11:45 | 43.32550 | 3.31632 | 491 ft | 141 kts | 98° |
| 2026-04-24 11:45 | 43.32477 | 3.32937 | 278 ft | 134 kts | 96° |
| 2026-04-24 11:46 | 43.32413 | 3.34195 | 110 ft | 131 kts | 97° |
| 2026-04-24 11:46 | 43.32343 | 3.35376 | 57 ft | 107 kts | 95° |
| 2026-04-24 11:46 | 43.32322 | 3.35791 | 53 ft | 13 kts | 84° |
| 2026-04-24 11:46 | 43.32319 | 3.35840 | 50 ft | 1 kts | 180° |
| 2026-04-24 11:47 | 43.32318 | 3.35838 | 53 ft | 0 kts | 203° |
| 2026-04-24 11:47 | 43.32318 | 3.35815 | 48 ft | 7 kts | 273° |
| 2026-04-24 11:47 | 43.32326 | 3.35685 | 50 ft | 21 kts | 275° |
| 2026-04-24 11:47 | 43.32338 | 3.35466 | 53 ft | 23 kts | 274° |
| 2026-04-24 11:48 | 43.32271 | 3.35335 | 55 ft | 16 kts | 196° |
| 2026-04-24 11:48 | 43.32181 | 3.35340 | 51 ft | 12 kts | 160° |
| 2026-04-24 11:48 | 43.32132 | 3.35344 | 57 ft | 0 kts | 184° |